TAF and METAR

Could not understand the following METAR

YBHI 251300Z AUTO 15008KT 9999 // NCD 14/M05 Q1022
No TAF available for Broken Hill Airport